Time;durP1;ratioP1;P1;durP2;ratioP2;P2;SDS_P1;SDS_P2;PMS_P1;PMS_P2;Temp;Humidity;BMP_temperature;BMP_pressure;BME280_temperature;BME280_humidity;BME280_pressure;Samples;Min_cycle;Max_cycle;Signal;HPM_P1;HPM_P2
2023/09/05 00:00:10;;;;;;;3.47;2.00;;;;;;;18.88;72.33;102122.16;5038005;27;96870;-27
2023/09/05 00:02:42;;;;;;;2.92;2.05;;;;;;;18.92;72.63;102129.16;5037745;27;100648;-27
2023/09/05 00:05:09;;;;;;;5.80;2.17;;;;;;;18.93;72.89;102127.31;5037537;27;101185;-27
2023/09/05 00:07:36;;;;;;;3.38;2.25;;;;;;;18.91;72.77;102124.66;5037929;27;96695;-26
2023/09/05 00:10:12;;;;;;;4.60;2.50;;;;;;;18.84;72.67;102112.41;5037805;27;96931;-27
2023/09/05 00:12:40;;;;;;;3.15;2.20;;;;;;;18.88;73.15;102123.03;5055900;27;99336;-27
2023/09/05 00:15:13;;;;;;;4.93;2.55;;;;;;;18.86;72.95;102124.16;5037693;27;101174;-27
2023/09/05 00:17:39;;;;;;;3.38;2.10;;;;;;;18.86;72.61;102122.28;5056095;27;96664;-27
2023/09/05 00:20:08;;;;;;;4.72;2.53;;;;;;;18.86;73.04;102113.16;5037790;27;96852;-27
2023/09/05 00:22:34;;;;;;;3.42;2.33;;;;;;;18.81;73.09;102105.28;5054849;27;100163;-28
2023/09/05 00:24:59;;;;;;;3.88;2.33;;;;;;;18.77;73.01;102098.25;5036981;27;101090;-26
2023/09/05 00:27:25;;;;;;;4.53;2.50;;;;;;;18.79;72.90;102109.13;5055980;27;96700;-27
2023/09/05 00:29:50;;;;;;;3.22;2.20;;;;;;;18.74;73.17;102098.47;5055667;27;97084;-27
2023/09/05 00:32:18;;;;;;;3.35;2.28;;;;;;;18.73;73.09;102098.56;5055609;27;97824;-27
2023/09/05 00:34:44;;;;;;;4.55;2.97;;;;;;;18.67;73.43;102100.78;5055450;27;98675;-27
2023/09/05 00:37:10;;;;;;;4.65;1.98;;;;;;;18.68;73.31;102097.03;5037570;27;96630;-28
2023/09/05 00:39:40;;;;;;;6.38;2.42;;;;;;;18.66;73.17;102095.41;5056160;27;96816;-26
2023/09/05 00:42:09;;;;;;;4.10;2.30;;;;;;;18.62;73.88;102094.78;5036615;27;101130;-26
2023/09/05 00:44:35;;;;;;;3.45;2.42;;;;;;;18.64;74.22;102100.16;5055391;27;99224;-27
2023/09/05 00:47:00;;;;;;;6.20;2.55;;;;;;;18.62;73.65;102103.00;5055366;27;96893;-27
2023/09/05 00:49:27;;;;;;;3.63;2.03;;;;;;;18.54;73.54;102096.34;5055626;27;96781;-27
2023/09/05 00:52:02;;;;;;;3.25;2.33;;;;;;;18.54;74.35;102097.22;5036812;27;100929;-28
2023/09/05 00:54:29;;;;;;;4.00;2.45;;;;;;;18.49;74.02;102096.69;5055128;27;99649;-27
2023/09/05 00:56:55;;;;;;;5.20;2.67;;;;;;;18.48;74.10;102094.09;5037077;27;96657;-27
2023/09/05 00:59:21;;;;;;;2.85;2.00;;;;;;;18.42;74.30;102093.56;5055666;27;96759;-27
2023/09/05 01:01:47;;;;;;;4.38;2.60;;;;;;;18.44;74.23;102091.53;5036841;27;101197;-27
2023/09/05 01:04:13;;;;;;;3.92;2.05;;;;;;;18.40;74.32;102101.03;5037035;27;101209;-27
2023/09/05 01:06:57;;;;;;;4.38;2.60;;;;;;;18.38;74.68;102096.63;5055405;27;96873;-27
2023/09/05 01:09:33;;;;;;;4.93;2.28;;;;;;;18.38;74.76;102102.13;5055146;27;96854;-27
2023/09/05 01:11:59;;;;;;;3.75;2.10;;;;;;;18.29;74.86;102078.13;5036149;27;100777;-27
2023/09/05 01:14:25;;;;;;;4.57;2.38;;;;;;;18.30;75.34;102085.34;5054826;27;99382;-27
2023/09/05 01:16:50;;;;;;;4.32;2.38;;;;;;;18.34;75.14;102092.38;5055156;27;96650;-27
2023/09/05 01:19:17;;;;;;;3.60;2.22;;;;;;;18.32;74.43;102086.13;5055290;27;96778;-27
2023/09/05 01:21:56;;;;;;;3.58;2.38;;;;;;;18.29;74.80;102080.88;5035982;27;101372;-27
2023/09/05 01:24:21;;;;;;;5.18;2.80;;;;;;;18.25;74.33;102094.78;5054743;27;99136;-27
2023/09/05 01:26:48;;;;;;;3.55;2.15;;;;;;;18.22;74.98;102081.31;5054916;27;96555;-28
2023/09/05 01:29:15;;;;;;;3.83;2.50;;;;;;;18.20;74.92;102083.28;5037211;27;96731;-27
2023/09/05 01:31:45;;;;;;;4.55;2.65;;;;;;;18.22;75.47;102085.94;5035994;27;101100;-27
2023/09/05 01:34:11;;;;;;;3.72;2.10;;;;;;;18.16;75.22;102084.53;5054541;27;98471;-27
2023/09/05 01:36:36;;;;;;;4.47;2.40;;;;;;;18.15;75.21;102084.63;5036110;27;96645;-27
2023/09/05 01:39:02;;;;;;;4.30;2.22;;;;;;;18.07;74.98;102070.59;5054780;27;96949;-27
2023/09/05 01:41:27;;;;;;;4.45;2.47;;;;;;;18.03;75.79;102070.81;5056053;27;99004;-28
2023/09/05 01:43:52;;;;;;;3.35;2.30;;;;;;;18.03;75.97;102058.97;5057832;27;98983;-27
2023/09/05 01:46:18;;;;;;;4.28;2.45;;;;;;;18.06;75.57;102066.09;5058370;27;96849;-27
2023/09/05 01:48:43;;;;;;;3.83;2.40;;;;;;;18.03;75.60;102057.09;5058590;27;96761;-27
2023/09/05 01:51:09;;;;;;;3.63;2.35;;;;;;;18.00;75.89;102056.47;5058109;27;97424;-27
2023/09/05 01:53:34;;;;;;;5.18;2.45;;;;;;;17.97;75.84;102062.16;5058528;27;97816;-27
2023/09/05 01:56:00;;;;;;;4.40;2.47;;;;;;;17.99;75.89;102068.41;5058678;27;96549;-27
2023/09/05 01:58:25;;;;;;;3.55;2.40;;;;;;;17.92;76.23;102064.38;5058720;27;96789;-27
2023/09/05 02:00:50;;;;;;;5.03;2.53;;;;;;;17.93;75.84;102071.63;5057303;27;98075;-27
2023/09/05 02:03:16;;;;;;;4.68;2.53;;;;;;;17.87;75.89;102064.72;5058366;27;97255;-27
2023/09/05 02:05:41;;;;;;;3.25;1.95;;;;;;;17.88;76.04;102063.72;5058167;27;96496;-27
2023/09/05 02:08:07;;;;;;;5.13;2.60;;;;;;;17.87;76.03;102064.72;5058173;27;96747;-27
2023/09/05 02:10:32;;;;;;;4.65;2.20;;;;;;;17.83;76.53;102058.59;5057860;27;97985;-27
2023/09/05 02:12:58;;;;;;;6.90;2.40;;;;;;;17.85;76.45;102057.59;5057827;27;97887;-27
2023/09/05 02:15:23;;;;;;;3.83;2.17;;;;;;;17.85;76.36;102060.31;5057793;27;96660;-27
2023/09/05 02:17:49;;;;;;;3.40;2.30;;;;;;;17.85;76.47;102055.72;5058945;27;96780;-27
2023/09/05 02:20:14;;;;;;;4.88;2.05;;;;;;;17.79;76.41;102039.69;5057542;27;99679;-27
2023/09/05 02:22:44;;;;;;;5.95;2.50;;;;;;;17.81;76.39;102040.50;5057578;27;97885;-27
2023/09/05 02:25:11;;;;;;;4.50;2.75;;;;;;;17.78;76.36;102035.19;5057551;27;96651;-28
2023/09/05 02:27:37;;;;;;;3.33;2.10;;;;;;;17.76;76.33;102038.06;5039419;27;96944;-27
2023/09/05 02:30:04;;;;;;;3.38;2.35;;;;;;;17.76;76.73;102034.44;5057538;27;97481;-27
2023/09/05 02:32:30;;;;;;;5.53;2.13;;;;;;;17.75;76.52;102038.16;5038862;27;100814;-27
2023/09/05 02:34:56;;;;;;;4.20;2.55;;;;;;;17.68;76.40;102031.38;5057635;27;96491;-27
2023/09/05 02:37:22;;;;;;;6.20;2.45;;;;;;;17.55;77.09;102026.78;5039296;27;96899;-26
2023/09/05 02:39:47;;;;;;;4.22;2.40;;;;;;;17.57;77.10;102027.56;5057687;27;97338;-29
2023/09/05 02:42:12;;;;;;;3.38;2.10;;;;;;;17.54;76.57;102032.38;5057261;27;97798;-27
2023/09/05 02:44:38;;;;;;;3.45;2.20;;;;;;;17.54;77.18;102029.63;5057671;27;96665;-27
2023/09/05 02:47:03;;;;;;;5.55;2.15;;;;;;;17.55;77.15;102036.88;5057815;27;96822;-27
2023/09/05 02:49:29;;;;;;;4.85;2.30;;;;;;;17.49;76.76;102029.97;5056743;27;97962;-28
2023/09/05 02:51:56;;;;;;;4.38;2.33;;;;;;;17.49;77.28;102027.22;5056776;27;99840;-27
2023/09/05 02:54:22;;;;;;;4.82;2.45;;;;;;;17.47;77.19;102028.31;5038995;27;96629;-27
2023/09/05 02:56:47;;;;;;;4.95;2.22;;;;;;;17.47;76.51;102031.06;5057573;27;96802;-27
2023/09/05 02:59:13;;;;;;;4.88;2.55;;;;;;;17.43;76.43;102037.78;5057092;27;97362;-27
2023/09/05 03:01:39;;;;;;;4.88;2.10;;;;;;;17.40;77.09;102037.00;5038557;27;100842;-27
2023/09/05 03:04:04;;;;;;;3.78;1.90;;;;;;;17.33;77.06;102030.19;5057177;27;96581;-27
2023/09/05 03:06:29;;;;;;;3.25;1.92;;;;;;;17.39;77.03;102031.63;5057791;27;96753;-27
2023/09/05 03:08:55;;;;;;;4.13;2.33;;;;;;;17.35;76.94;102041.94;5056801;27;99244;-27
2023/09/05 03:11:20;;;;;;;3.80;2.22;;;;;;;17.32;76.88;102031.16;5056633;27;99224;-28
2023/09/05 03:13:47;;;;;;;3.33;2.10;;;;;;;17.34;77.21;102028.34;5056524;27;97966;-26
2023/09/05 03:16:12;;;;;;;4.28;2.58;;;;;;;17.36;77.28;102029.09;5056885;27;96895;-26
2023/09/05 03:18:40;;;;;;;6.18;2.67;;;;;;;17.31;76.80;102017.59;5056838;27;98548;-27
2023/09/05 03:21:05;;;;;;;4.22;2.70;;;;;;;17.30;77.07;102016.69;5056664;27;97088;-27
2023/09/05 03:23:31;;;;;;;4.90;2.58;;;;;;;17.31;77.24;102029.44;5038619;27;96834;-26
2023/09/05 03:25:56;;;;;;;3.72;2.25;;;;;;;17.29;77.07;102027.78;5038680;27;96929;-29
2023/09/05 03:28:22;;;;;;;4.88;2.40;;;;;;;17.22;77.38;102021.88;5056328;27;99111;-27
2023/09/05 03:30:48;;;;;;;3.00;2.17;;;;;;;17.17;77.45;102015.84;5056936;27;96511;-27
2023/09/05 03:33:14;;;;;;;4.30;2.25;;;;;;;17.12;77.52;102010.69;5021655;27;96607;-26
2023/09/05 03:35:40;;;;;;;3.75;2.38;;;;;;;17.13;77.40;102003.34;5056821;27;97621;-27
2023/09/05 03:38:06;;;;;;;4.40;2.33;;;;;;;17.18;77.72;102003.88;5056088;27;98012;-26
2023/09/05 03:40:31;;;;;;;4.15;2.45;;;;;;;17.13;77.15;102003.34;5055975;27;99322;-28
2023/09/05 03:42:57;;;;;;;5.30;2.60;;;;;;;17.12;77.28;101994.25;5056322;27;96545;-27
2023/09/05 03:45:22;;;;;;;4.45;2.88;;;;;;;17.10;77.61;101998.09;5056437;27;96717;-27
2023/09/05 03:47:48;;;;;;;4.65;2.25;;;;;;;17.10;77.65;101998.09;5037781;27;101249;-27
2023/09/05 03:50:15;;;;;;;4.18;2.50;;;;;;;17.14;77.42;102008.72;5056425;27;97307;-27
2023/09/05 03:52:41;;;;;;;4.60;2.15;;;;;;;17.14;77.93;102005.13;5038162;27;96523;-27
2023/09/05 03:55:06;;;;;;;5.00;2.30;;;;;;;17.10;78.05;102003.56;5057006;27;96800;-27
2023/09/05 03:57:32;;;;;;;4.32;2.60;;;;;;;17.06;77.15;101989.19;5056155;27;97440;-27
2023/09/05 03:59:57;;;;;;;4.05;2.40;;;;;;;17.07;77.02;101988.25;5056012;27;99313;-27
2023/09/05 04:02:22;;;;;;;5.78;2.75;;;;;;;17.07;77.38;101990.09;5056329;27;96617;-27
2023/09/05 04:04:48;;;;;;;7.32;2.72;;;;;;;17.08;77.92;101991.84;5055791;27;96846;-27
2023/09/05 04:07:13;;;;;;;7.22;2.47;;;;;;;17.03;77.82;101989.44;5055983;27;97947;-27
2023/09/05 04:09:38;;;;;;;4.10;2.20;;;;;;;17.07;77.96;101996.44;5056005;27;98000;-27
2023/09/05 04:12:04;;;;;;;3.50;2.30;;;;;;;17.10;77.93;101992.63;5056034;27;96740;-27
2023/09/05 04:14:30;;;;;;;3.55;2.08;;;;;;;17.08;77.80;101986.38;5037635;27;96798;-27
2023/09/05 04:16:55;;;;;;;3.40;2.15;;;;;;;17.08;78.15;101994.59;5055876;27;97450;-27
2023/09/05 04:19:20;;;;;;;4.85;2.28;;;;;;;17.10;77.97;101993.50;5056057;27;99509;-26
2023/09/05 04:21:46;;;;;;;3.45;2.28;;;;;;;17.06;77.52;101991.06;5055996;27;96791;-27
2023/09/05 04:24:11;;;;;;;3.80;2.25;;;;;;;17.06;78.01;101985.59;5056030;27;96811;-28
2023/09/05 04:26:37;;;;;;;3.65;2.22;;;;;;;17.07;78.06;101999.19;5054731;27;99886;-26
2023/09/05 04:29:04;;;;;;;3.58;2.25;;;;;;;17.03;78.04;101983.97;5037291;27;101747;-27
2023/09/05 04:31:29;;;;;;;5.05;2.40;;;;;;;17.03;78.03;101997.66;5037401;27;96612;-31
2023/09/05 04:33:55;;;;;;;3.97;2.33;;;;;;;17.03;78.15;101996.78;5056031;27;96754;-27
2023/09/05 04:36:22;;;;;;;3.42;2.30;;;;;;;16.99;78.07;101990.63;5055246;27;99300;-28
2023/09/05 04:38:49;;;;;;;3.85;2.28;;;;;;;17.00;77.97;101994.25;5037065;27;101392;-26
2023/09/05 04:41:15;;;;;;;3.60;2.53;;;;;;;17.03;78.15;102005.00;5036956;27;96811;-27
2023/09/05 04:43:40;;;;;;;4.32;2.47;;;;;;;17.02;78.40;102000.47;5055583;27;96502;-27
2023/09/05 04:46:06;;;;;;;4.55;2.40;;;;;;;16.95;77.76;102003.66;5055651;27;97422;-27
2023/09/05 04:48:31;;;;;;;5.63;2.30;;;;;;;17.00;78.15;102002.47;5055410;27;97968;-28
2023/09/05 04:50:59;;;;;;;3.85;2.33;;;;;;;16.95;78.36;101998.19;5054916;27;96675;-26
2023/09/05 04:53:24;;;;;;;5.32;2.72;;;;;;;16.93;78.56;101999.28;5055536;27;96722;-27
2023/09/05 04:55:51;;;;;;;3.38;2.03;;;;;;;16.97;78.62;102009.91;5055190;27;98034;-27
2023/09/05 04:58:17;;;;;;;8.50;2.60;;;;;;;16.90;78.49;102008.59;5036659;27;98915;-27
2023/09/05 05:00:43;;;;;;;4.20;2.42;;;;;;;16.90;78.63;102013.16;5055521;27;96756;-27
2023/09/05 05:03:09;;;;;;;4.38;2.55;;;;;;;16.91;79.05;102013.06;5055406;27;96813;-27
2023/09/05 05:05:34;;;;;;;4.15;2.28;;;;;;;16.91;78.57;102007.59;5036783;27;100939;-27
2023/09/05 05:08:00;;;;;;;4.03;2.58;;;;;;;16.86;78.58;102018.00;5055636;27;97784;-27
2023/09/05 05:10:25;;;;;;;4.85;2.30;;;;;;;16.85;78.92;102008.03;5055296;27;96691;-27
2023/09/05 05:12:50;;;;;;;3.28;2.08;;;;;;;16.83;79.42;102007.25;5055409;27;96838;-27
2023/09/05 05:15:16;;;;;;;3.72;2.17;;;;;;;16.82;78.86;102007.34;5053587;27;97940;-26
2023/09/05 05:17:41;;;;;;;5.35;2.53;;;;;;;16.78;78.94;101990.25;5054832;27;97402;-27
2023/09/05 05:20:07;;;;;;;4.65;2.28;;;;;;;16.76;78.70;101995.81;5055411;27;96674;-27
2023/09/05 05:22:33;;;;;;;3.42;2.20;;;;;;;16.76;79.14;101990.34;5036383;27;96853;-27
2023/09/05 05:24:59;;;;;;;3.83;2.53;;;;;;;16.78;79.24;102001.22;5054614;27;99236;-26
2023/09/05 05:27:25;;;;;;;3.47;1.88;;;;;;;16.77;79.29;102002.16;5035979;27;100843;-27
2023/09/05 05:29:52;;;;;;;4.50;2.00;;;;;;;16.74;78.97;102002.38;5055014;27;96657;-26
2023/09/05 05:32:17;;;;;;;4.38;2.53;;;;;;;16.73;79.39;101996.06;5037034;27;96905;-26
2023/09/05 05:34:42;;;;;;;4.07;1.88;;;;;;;16.78;79.16;102001.22;5054809;27;98479;-27
2023/09/05 05:37:08;;;;;;;3.53;2.13;;;;;;;16.75;79.28;102001.41;5054456;27;97772;-27
2023/09/05 05:39:33;;;;;;;6.10;2.25;;;;;;;16.76;78.86;102000.44;5054391;27;96669;-26
2023/09/05 05:41:59;;;;;;;4.40;2.38;;;;;;;16.79;78.48;102011.19;5054125;27;96844;-27
2023/09/05 05:44:24;;;;;;;4.32;1.92;;;;;;;16.79;78.78;102005.72;5054760;27;97841;-26
2023/09/05 05:46:49;;;;;;;5.35;2.28;;;;;;;16.76;78.39;102014.97;5054700;27;97779;-27
2023/09/05 05:49:15;;;;;;;3.13;1.92;;;;;;;16.84;78.85;102017.22;5054980;27;96739;-28
2023/09/05 05:51:40;;;;;;;3.53;1.98;;;;;;;16.82;78.92;102018.31;5052620;27;97226;-27
2023/09/05 05:54:07;;;;;;;3.80;2.30;;;;;;;16.81;78.91;102014.69;5052074;27;97800;-27
2023/09/05 05:56:32;;;;;;;3.85;2.03;;;;;;;16.77;79.45;102002.16;5034255;27;101424;-31
2023/09/05 05:58:58;;;;;;;4.43;2.20;;;;;;;16.84;79.26;102014.47;5053238;27;96566;-27
2023/09/05 06:01:23;;;;;;;3.95;2.05;;;;;;;16.93;78.44;102019.31;5053059;27;97079;-27
2023/09/05 06:03:48;;;;;;;4.25;2.30;;;;;;;16.92;79.09;102014.84;5052233;27;97942;-27
2023/09/05 06:06:14;;;;;;;3.47;1.92;;;;;;;16.96;78.70;102019.09;5053613;27;97315;-28
2023/09/05 06:08:40;;;;;;;3.53;2.08;;;;;;;16.95;78.38;102005.53;5054635;27;96659;-27
2023/09/05 06:11:06;;;;;;;4.75;2.50;;;;;;;17.02;78.45;102017.81;5036163;27;96762;-26
2023/09/05 06:13:31;;;;;;;6.28;2.30;;;;;;;17.07;78.07;102009.28;5054412;27;97950;-27
2023/09/05 06:15:57;;;;;;;3.15;2.03;;;;;;;17.10;77.69;102015.41;5054274;27;97782;-27
2023/09/05 06:18:23;;;;;;;3.72;1.92;;;;;;;17.18;77.58;102003.88;5036088;27;96539;-27
2023/09/05 06:20:49;;;;;;;3.05;2.03;;;;;;;17.25;77.60;102007.06;5054625;27;96681;-28
2023/09/05 06:23:14;;;;;;;4.80;2.08;;;;;;;17.29;77.73;102009.50;5053756;27;98039;-29
2023/09/05 06:25:40;;;;;;;4.07;1.90;;;;;;;17.40;77.16;102011.47;5052789;27;99055;-27
2023/09/05 06:28:05;;;;;;;5.43;2.13;;;;;;;17.52;76.70;102015.16;5056243;27;96670;-28
2023/09/05 06:30:30;;;;;;;3.88;2.20;;;;;;;17.60;76.63;102010.03;5056419;27;96825;-27
2023/09/05 06:32:56;;;;;;;3.47;1.73;;;;;;;17.71;76.35;102015.59;5057438;27;97517;-26
2023/09/05 06:35:21;;;;;;;2.88;1.92;;;;;;;17.87;75.39;102025.47;5057512;27;97381;-26
2023/09/05 06:37:51;;;;;;;2.63;1.58;;;;;;;18.00;75.30;102021.69;5057533;27;96671;-27
2023/09/05 06:40:18;;;;;;;4.72;2.33;;;;;;;18.12;75.39;102024.53;5039385;27;96846;-28
2023/09/05 06:42:44;;;;;;;2.92;1.83;;;;;;;18.21;75.03;102013.75;5056565;27;99300;-27
2023/09/05 06:45:10;;;;;;;3.00;1.73;;;;;;;18.39;74.81;102018.81;5039313;27;101495;-27
2023/09/05 06:47:36;;;;;;;3.00;1.63;;;;;;;18.52;73.99;102013.25;5039218;27;96677;-26
2023/09/05 06:50:05;;;;;;;3.13;1.88;;;;;;;18.75;73.73;102008.75;5057767;27;97059;-26
2023/09/05 06:52:33;;;;;;;3.88;2.05;;;;;;;18.88;72.95;102013.19;5037815;27;100877;-27
2023/09/05 06:54:59;;;;;;;4.28;1.88;;;;;;;19.07;72.89;102007.13;5057122;27;99160;-27
2023/09/05 06:57:26;;;;;;;3.95;1.50;;;;;;;19.25;71.60;102013.03;5057521;27;96690;-27
2023/09/05 06:59:51;;;;;;;4.03;1.85;;;;;;;19.46;71.75;102004.06;5057413;27;96829;-27
2023/09/05 07:02:17;;;;;;;3.97;1.75;;;;;;;19.60;70.98;102002.97;5057200;27;97905;-27
2023/09/05 07:04:42;;;;;;;3.40;1.90;;;;;;;19.73;70.03;102009.22;5057208;27;97705;-26
2023/09/05 07:07:08;;;;;;;4.55;2.22;;;;;;;19.90;70.05;102000.47;5057319;27;96732;-26
2023/09/05 07:09:34;;;;;;;2.90;1.83;;;;;;;20.09;69.81;102010.81;5057861;27;97350;-27
2023/09/05 07:12:00;;;;;;;5.40;1.88;;;;;;;20.16;68.84;102005.66;5056713;27;99494;-27
2023/09/05 07:14:26;;;;;;;5.07;2.00;;;;;;;20.30;68.39;101999.84;5038867;27;100808;-26
2023/09/05 07:16:52;;;;;;;4.75;1.88;;;;;;;20.54;68.29;102007.03;5057102;27;96457;-27
2023/09/05 07:19:18;;;;;;;4.25;2.08;;;;;;;20.76;67.72;102006.09;5057197;27;96781;-28
2023/09/05 07:21:44;;;;;;;3.53;1.95;;;;;;;20.96;66.95;102008.00;5038023;27;101133;-27
2023/09/05 07:24:11;;;;;;;2.33;1.52;;;;;;;21.07;66.92;102009.84;5038204;27;101126;-26
2023/09/05 07:26:40;;;;;;;2.53;1.70;;;;;;;21.10;66.30;102005.94;5038658;27;96672;-26
2023/09/05 07:29:08;;;;;;;4.10;2.17;;;;;;;21.32;65.93;102018.69;5038547;27;96882;-26
2023/09/05 07:31:34;;;;;;;3.03;1.90;;;;;;;21.44;65.46;102014.00;5038089;27;101707;-27
2023/09/05 07:33:59;;;;;;;3.15;1.85;;;;;;;21.56;65.49;102013.75;5057018;27;97122;-27
2023/09/05 07:36:27;;;;;;;2.25;1.50;;;;;;;21.69;64.75;102019.06;5056762;27;96515;-27
2023/09/05 07:38:52;;;;;;;2.42;1.40;;;;;;;21.79;64.62;102008.06;5037477;27;96682;-27
2023/09/05 07:41:17;;;;;;;3.13;1.90;;;;;;;21.98;64.32;102010.88;5055944;27;97540;-26
2023/09/05 07:43:43;;;;;;;7.70;2.00;;;;;;;22.19;64.10;102004.38;5055863;27;98755;-28
2023/09/05 07:46:11;;;;;;;2.72;1.90;;;;;;;22.13;63.20;101997.56;5056797;27;96511;-27
2023/09/05 07:48:37;;;;;;;2.47;1.60;;;;;;;22.33;64.10;102009.53;5038208;27;96815;-28
2023/09/05 07:51:04;;;;;;;3.05;1.60;;;;;;;22.42;62.78;102000.38;5037745;27;101094;-28
2023/09/05 07:53:32;;;;;;;2.83;1.58;;;;;;;22.46;62.82;102009.28;5037819;27;100900;-27
2023/09/05 07:55:57;;;;;;;4.63;1.48;;;;;;;22.58;61.98;102002.59;5056559;27;96708;-26
2023/09/05 07:58:23;;;;;;;3.17;1.75;;;;;;;22.75;62.28;101987.19;5038571;27;96848;-27
2023/09/05 08:00:49;;;;;;;3.35;2.00;;;;;;;22.71;60.70;101994.00;5056422;27;97563;-27
2023/09/05 08:03:16;;;;;;;3.10;1.88;;;;;;;22.93;61.75;102000.25;5037400;27;101217;-27
2023/09/05 08:05:41;;;;;;;3.35;1.50;;;;;;;22.89;60.04;101991.38;5037386;27;96635;-28
2023/09/05 08:08:06;;;;;;;5.55;2.10;;;;;;;22.95;60.16;101996.31;5056010;27;96835;-26
2023/09/05 08:10:33;;;;;;;3.67;1.98;;;;;;;23.06;60.25;101987.91;5056045;27;97991;-28
2023/09/05 08:12:59;;;;;;;5.30;1.63;;;;;;;23.18;59.79;101998.78;5055818;27;97861;-27
2023/09/05 08:15:24;;;;;;;2.58;1.50;;;;;;;23.38;60.20;101996.84;5056027;27;96702;-27
2023/09/05 08:17:49;;;;;;;2.13;1.50;;;;;;;23.49;59.82;101993.91;5056110;27;96915;-28
2023/09/05 08:20:16;;;;;;;3.47;2.00;;;;;;;23.51;59.14;101984.41;5055878;27;98474;-28
2023/09/05 08:22:44;;;;;;;2.63;1.67;;;;;;;23.58;59.48;101976.38;5054614;27;99183;-27
2023/09/05 08:25:09;;;;;;;3.90;1.75;;;;;;;23.77;59.54;101991.19;5037593;27;96765;-27
2023/09/05 08:27:35;;;;;;;3.55;2.10;;;;;;;23.89;58.18;102001.03;5056324;27;96809;-27
2023/09/05 08:30:00;;;;;;;3.30;1.85;;;;;;;24.00;58.45;101999.94;5054933;27;98712;-28
2023/09/05 08:32:26;;;;;;;2.17;1.27;;;;;;;24.00;58.76;101998.03;5055370;27;98318;-27
2023/09/05 08:34:51;;;;;;;3.95;1.75;;;;;;;24.16;58.56;101998.25;5055922;27;96533;-28
2023/09/05 08:37:16;;;;;;;3.70;1.67;;;;;;;24.21;57.61;101994.13;5055927;27;96774;-27
2023/09/05 08:39:42;;;;;;;5.13;1.73;;;;;;;24.26;57.14;101995.41;5055333;27;99510;-26
2023/09/05 08:42:08;;;;;;;2.90;1.90;;;;;;;24.48;57.52;102012.63;5054895;27;97282;-27
2023/09/05 08:44:43;;;;;;;2.58;1.55;;;;;;;24.62;57.46;102008.44;5020582;27;96783;-27
2023/09/05 08:47:09;;;;;;;3.08;1.75;;;;;;;24.63;57.63;102010.19;5037715;27;96795;-27
2023/09/05 08:49:35;;;;;;;4.93;2.00;;;;;;;24.66;55.74;102010.75;5055244;27;97925;-27
2023/09/05 08:52:02;;;;;;;4.53;1.90;;;;;;;24.69;56.74;102006.78;5054937;27;98837;-27
2023/09/05 08:54:29;;;;;;;5.78;1.73;;;;;;;24.79;55.97;102005.69;5055310;27;96659;-27
2023/09/05 08:56:55;;;;;;;3.08;1.73;;;;;;;24.83;56.52;102008.13;5037065;27;96910;-27
2023/09/05 08:59:21;;;;;;;3.50;1.80;;;;;;;24.99;56.89;102006.34;5055047;27;99545;-27
2023/09/05 09:01:46;;;;;;;4.28;1.90;;;;;;;25.08;56.13;102009.22;5036694;27;99292;-27
2023/09/05 09:04:13;;;;;;;2.35;1.40;;;;;;;25.18;56.13;102012.78;5055650;27;96579;-26
2023/09/05 09:06:42;;;;;;;3.92;1.60;;;;;;;25.34;56.09;102025.91;5055477;27;96747;-29
2023/09/05 09:09:28;;;;;;;5.00;1.92;;;;;;;25.38;55.48;102032.84;5055058;27;98046;-27
2023/09/05 09:12:02;;;;;;;5.38;1.75;;;;;;;25.35;54.30;102020.19;5055088;27;97568;-27
2023/09/05 09:14:27;;;;;;;2.90;1.77;;;;;;;25.59;55.45;102030.56;5055204;27;96610;-27
2023/09/05 09:16:53;;;;;;;2.53;1.67;;;;;;;25.71;54.83;102033.06;5055437;27;96782;-27
2023/09/05 09:19:18;;;;;;;2.10;1.45;;;;;;;25.87;54.92;102032.31;5054458;27;97925;-28
2023/09/05 09:21:47;;;;;;;2.78;1.63;;;;;;;25.96;54.20;102028.53;5054770;27;97807;-27
2023/09/05 09:24:15;;;;;;;3.20;1.60;;;;;;;26.04;54.05;102028.56;5036771;27;96788;-26
2023/09/05 09:26:42;;;;;;;5.20;1.83;;;;;;;26.12;53.50;102025.81;5054840;27;96816;-27
2023/09/05 09:29:10;;;;;;;2.70;1.70;;;;;;;26.17;53.78;102025.28;5036394;27;100989;-27
2023/09/05 09:31:37;;;;;;;3.42;1.50;;;;;;;26.26;53.46;102011.25;5036174;27;100773;-27
2023/09/05 09:34:05;;;;;;;3.00;1.45;;;;;;;26.40;52.46;102015.28;5036677;27;96597;-27
2023/09/05 09:36:34;;;;;;;7.88;1.85;;;;;;;26.45;51.83;102014.78;5037050;27;96902;-27
2023/09/05 09:39:07;;;;;;;2.97;1.40;;;;;;;26.49;52.22;102016.19;5054457;27;99216;-27
2023/09/05 09:41:32;;;;;;;3.15;1.48;;;;;;;26.56;53.50;102014.50;5052368;27;97706;-35
2023/09/05 09:43:58;;;;;;;1.92;1.38;;;;;;;26.62;52.75;102022.13;5034847;27;96827;-27
2023/09/05 09:46:24;;;;;;;2.45;1.50;;;;;;;26.71;52.71;102002.72;5034365;27;97150;-30
2023/09/05 09:48:52;;;;;;;3.90;1.67;;;;;;;26.85;51.79;102016.78;5053982;27;97987;-28
2023/09/05 09:51:23;;;;;;;3.60;1.52;;;;;;;26.96;52.42;101996.13;5035797;27;101080;-27
2023/09/05 09:53:50;;;;;;;4.05;1.48;;;;;;;27.11;51.11;101994.34;5036512;27;96685;-27
2023/09/05 09:56:19;;;;;;;2.30;1.42;;;;;;;27.28;50.83;101997.16;5036279;27;96937;-27
2023/09/05 09:58:46;;;;;;;6.05;1.80;;;;;;;27.45;51.25;102000.75;5036163;27;101692;-27
2023/09/05 10:01:13;;;;;;;2.67;1.42;;;;;;;27.45;50.79;101984.91;5036479;27;100798;-27
2023/09/05 10:03:40;;;;;;;4.78;1.92;;;;;;;27.60;50.21;101990.66;5038798;27;97106;-29
2023/09/05 10:06:07;;;;;;;2.28;1.50;;;;;;;27.61;51.26;101977.59;5037403;27;97071;-28
2023/09/05 10:08:34;;;;;;;8.65;1.80;;;;;;;27.66;50.16;101964.84;5055111;27;97369;-28
2023/09/05 10:11:00;;;;;;;2.95;1.60;;;;;;;27.73;50.14;101954.72;5037019;27;101310;-28
2023/09/05 10:13:27;;;;;;;3.15;1.65;;;;;;;27.73;47.65;101957.50;5037123;27;97053;-27
2023/09/05 10:15:56;;;;;;;3.85;1.75;;;;;;;27.93;50.05;101955.19;5037159;27;97138;-29
2023/09/05 10:18:22;;;;;;;2.30;1.40;;;;;;;28.06;50.19;101928.66;5036969;27;101020;-27
2023/09/05 10:20:52;;;;;;;4.20;1.92;;;;;;;28.32;49.50;101936.69;5039282;27;100832;-30
2023/09/05 10:23:18;;;;;;;2.08;1.40;;;;;;;28.37;49.23;101948.13;5039437;27;96696;-28
2023/09/05 10:25:45;;;;;;;2.40;1.60;;;;;;;28.44;48.91;101945.47;5039904;27;96869;-27
2023/09/05 10:28:10;;;;;;;2.92;1.55;;;;;;;28.54;49.13;101946.13;5039216;27;101149;-27
2023/09/05 10:30:44;;;;;;;4.38;1.52;;;;;;;28.73;48.55;101950.31;5057803;27;97295;-28
2023/09/05 10:33:10;;;;;;;3.70;1.67;;;;;;;28.68;47.32;101947.25;5056968;27;96759;-27
2023/09/05 10:35:35;;;;;;;3.20;1.77;;;;;;;28.56;48.69;101950.47;5039425;27;96873;-28
2023/09/05 10:38:05;;;;;;;2.75;1.60;;;;;;;28.54;48.58;101948.91;5057423;27;97947;-27
2023/09/05 10:40:38;;;;;;;2.53;1.48;;;;;;;28.62;46.70;101940.47;5038656;27;98829;-27
2023/09/05 10:43:14;;;;;;;3.63;1.80;;;;;;;28.71;48.59;101936.56;5057357;27;96704;-27
2023/09/05 10:45:40;;;;;;;2.83;1.38;;;;;;;28.83;48.35;101928.59;5039259;27;96768;-27
2023/09/05 10:48:16;;;;;;;3.13;1.77;;;;;;;28.85;47.94;101939.59;5057178;27;98953;-27
2023/09/05 10:51:08;;;;;;;4.07;1.63;;;;;;;29.00;47.28;101943.25;5057524;27;99333;-27
2023/09/05 10:53:39;;;;;;;2.05;1.42;;;;;;;29.01;48.23;101943.09;5039138;27;96625;-28
2023/09/05 10:56:04;;;;;;;4.00;1.60;;;;;;;29.10;48.13;101943.03;5057613;27;96635;-27
2023/09/05 10:58:51;;;;;;;3.47;1.67;;;;;;;29.05;47.02;101937.97;5038208;27;101022;-29
2023/09/05 11:01:32;;;;;;;5.32;1.45;;;;;;;29.14;46.14;101944.38;5057214;27;97845;-27
2023/09/05 11:04:10;;;;;;;3.03;1.60;;;;;;;29.28;46.52;101937.09;5039145;27;96651;-28
2023/09/05 11:06:42;;;;;;;4.28;1.77;;;;;;;29.22;47.22;101935.91;5057520;27;96502;-27
2023/09/05 11:09:08;;;;;;;3.47;1.77;;;;;;;29.31;47.75;101937.56;5038493;27;101175;-27
2023/09/05 11:11:37;;;;;;;2.72;1.58;;;;;;;29.40;46.65;101927.16;5056933;27;97798;-27
2023/09/05 11:14:09;;;;;;;3.88;1.67;;;;;;;29.52;47.22;101931.19;5038817;27;96655;-28
2023/09/05 11:16:51;;;;;;;2.35;1.63;;;;;;;29.59;46.09;101923.78;5039116;27;96935;-28
2023/09/05 11:19:42;;;;;;;2.88;1.52;;;;;;;29.78;45.97;101924.28;5038325;27;101024;-28
2023/09/05 11:22:14;;;;;;;3.17;1.65;;;;;;;29.83;46.07;101932.94;5030720;27;101050;-28